WetterOnline ( https://www.wetteronline.ch )

Wetter aktuell Heigenbrücken

Aktuelles Wetter: Neuhütten/Spessart (340m)

6-stündlich | Neueste Meldungen
Ortszeit Temperatur Wetter
Do, 13.06. 8:00 10.5° C bewölkt
Do, 13.06. 2:00 8.8° C bewölkt
Mi, 12.06. 20:00 14.0° C bedeckt
Mi, 12.06. 14:00 14.6° C bewölkt
Mi, 12.06. 8:00 9.9° C wolkenlos
Mi, 12.06. 2:00 7.2° C bedeckt
Di, 11.06. 20:00 13.9° C leicht bewölkt
Di, 11.06. 14:00 14.3° C fast wolkenlos
Ortszeit Temperatur Wetter
Do, 13.06. 12:10 15.5° C leicht bewölkt
Do, 13.06. 12:00 14.1° C wolkig
Do, 13.06. 11:50 14.1° C wolkig
Do, 13.06. 11:40 14.4° C leicht bewölkt
Do, 13.06. 11:30 14.1° C leicht bewölkt
Do, 13.06. 11:20 14.1° C leicht bewölkt
Do, 13.06. 11:00 14.0° C leicht bewölkt
Do, 13.06. 10:30 14.1° C leicht bewölkt
Do, 13.06. 10:00 12.7° C wolkig
Do, 13.06. 9:30 12.3° C bedeckt
Ortszeit Relative Feuchte Sichtweite
Do, 13.06. 8:00 75% 35 km
Do, 13.06. 2:00 83% 50 km
Mi, 12.06. 20:00 53% 55 km
Mi, 12.06. 14:00 53% 40 km
Mi, 12.06. 8:00 78% 45 km
Mi, 12.06. 2:00 90% 10 km
Di, 11.06. 20:00 51% 65 km
Di, 11.06. 14:00 53% >70 km
Ortszeit Relative Feuchte Sichtweite
Do, 13.06. 12:10 48% -
Do, 13.06. 12:00 51% 50 km
Do, 13.06. 11:50 51% -
Do, 13.06. 11:40 52% -
Do, 13.06. 11:30 54% 40 km
Do, 13.06. 11:20 54% -
Do, 13.06. 11:00 52% 40 km
Do, 13.06. 10:30 61% 40 km
Do, 13.06. 10:00 63% 45 km
Do, 13.06. 9:30 62% 40 km
Ortszeit Niederschlagsmenge Niederschlagsart
Do, 13.06. 8:00 0.0 l/m2 in 12 Std. -
Do, 13.06. 2:00 0.0 l/m2 in 6 Std. -
Mi, 12.06. 20:00 0.0 l/m2 in 12 Std. -
Mi, 12.06. 14:00 0.0 l/m2 in 6 Std. -
Mi, 12.06. 8:00 0.0 l/m2 in 12 Std. -
Mi, 12.06. 2:00 0.0 l/m2 in 6 Std. -
Di, 11.06. 20:00 0.0 l/m2 in 12 Std. -
Di, 11.06. 14:00 0.0 l/m2 in 6 Std. -
Ortszeit Niederschlagsmenge Niederschlagsart
Do, 13.06. 12:10 keine Meldung -
Do, 13.06. 12:00 0.0 l/m2 in 1 Std. -
Do, 13.06. 11:50 keine Meldung -
Do, 13.06. 11:40 keine Meldung -
Do, 13.06. 11:30 0.0 l/m2 in 30 Min -
Do, 13.06. 11:20 keine Meldung -
Do, 13.06. 11:00 0.0 l/m2 in 1 Std. -
Do, 13.06. 10:30 0.0 l/m2 in 30 Min -
Do, 13.06. 10:00 0.0 l/m2 in 1 Std. -
Do, 13.06. 9:30 0.0 l/m2 in 30 Min -
Ortszeit Stärke Spitze Richtung
km/h Bft. km/h Grad Sektor
Do, 13.06. 8:00 4 1 11 90° O
Do, 13.06. 2:00 0 0 18 - -
Mi, 12.06. 20:00 7 2 25 360° N
Mi, 12.06. 14:00 9 2 26 290° W
Mi, 12.06. 8:00 2 1 9 190° S
Mi, 12.06. 2:00 2 1 13 250° W
Di, 11.06. 20:00 7 2 32 350° N
Di, 11.06. 14:00 18 3 32 220° SW
Ortszeit Stärke Spitze Richtung
km/h Bft. km/h Grad Sektor
Do, 13.06. 12:10 6 1 - 230° SW
Do, 13.06. 12:00 7 2 22 10° N
Do, 13.06. 11:50 7 2 - 10° N
Do, 13.06. 11:40 11 2 - 360° N
Do, 13.06. 11:30 7 2 18 330° NW
Do, 13.06. 11:20 7 2 - 330° NW
Do, 13.06. 11:00 4 1 14 240° SW
Do, 13.06. 10:30 6 1 9 120° SO
Do, 13.06. 10:00 6 1 11 110° O
Do, 13.06. 9:30 4 1 11 40° NO
Ortszeit Untergrenze Bedeckung Gattung
total tief tief mittel hoch
Do, 13.06. 8:00 2700 m 7/8 7/8 - - -
Do, 13.06. 2:00 2700 m 7/8 7/8 - - -
Mi, 12.06. 20:00 2700 m 8/8 8/8 - - -
Mi, 12.06. 14:00 1320 m 7/8 7/8 - - -
Mi, 12.06. 8:00 - 0/8 0/8 - - -
Mi, 12.06. 2:00 3000 m 8/8 8/8 - - -
Di, 11.06. 20:00 2700 m 3/8 3/8 - - -
Di, 11.06. 14:00 1290 m 1/8 1/8 - - -
Ortszeit Bedeckungsgrad in Achtel und Wolkenuntergrenze
Do, 13.06. 12:10 4
Do, 13.06. 12:00 4(1260m) 5(1500m)
Do, 13.06. 11:50 4(1260m) 5(1500m)
Do, 13.06. 11:40 4
Do, 13.06. 11:30 4(1260m)
Do, 13.06. 11:20 4(1260m)
Do, 13.06. 11:00 2(1110m)
Do, 13.06. 10:30 1(960m) 3(2400m)
Do, 13.06. 10:00 6(2400m)
Do, 13.06. 9:30 8(2400m)
Ortszeit Luftdruck NN (hPa) Tendenz (hPa in 3 Std.)
Do, 13.06. 8:00 1020 + 0,6
Do, 13.06. 2:00 1020 0,0
Mi, 12.06. 20:00 1018 - 0,1
Mi, 12.06. 14:00 1019 - 0,2
Mi, 12.06. 8:00 1019 + 0,8
Mi, 12.06. 2:00 1019 + 0,5
Di, 11.06. 20:00 1016 - 0,2
Di, 11.06. 14:00 1016 0,0
Ortszeit Luftdruck NN (hPa) Tendenz (hPa in 3 Std.)
Do, 13.06. 12:10 1018 keine Meldung
Do, 13.06. 12:00 1019 - 0,5
Do, 13.06. 11:50 1019 keine Meldung
Do, 13.06. 11:40 1019 keine Meldung
Do, 13.06. 11:30 1019 - 0,3
Do, 13.06. 11:20 1019 keine Meldung
Do, 13.06. 11:00 1019 - 0,1
Do, 13.06. 10:30 1019 0,0
Do, 13.06. 10:00 1019 + 0,2
Do, 13.06. 9:30 1019 + 0,5
Ortszeit Schneehöhe (cm)
Do, 13.06. 8:00 0
Do, 13.06. 2:00 0
Mi, 12.06. 20:00 0
Mi, 12.06. 14:00 0
Mi, 12.06. 8:00 0
Mi, 12.06. 2:00 0
Di, 11.06. 20:00 0
Di, 11.06. 14:00 0
Ortszeit Schneehöhe (cm)
Do, 13.06. 12:10 -
Do, 13.06. 12:00 0
Do, 13.06. 11:50 0
Do, 13.06. 11:40 -
Do, 13.06. 11:30 0
Do, 13.06. 11:20 0
Do, 13.06. 11:00 0
Do, 13.06. 10:30 0
Do, 13.06. 10:00 0
Do, 13.06. 9:30 0
Link zu dieser Seite / Seite empfehlen

Das Wetter in ...